Time;durP1;ratioP1;P1;durP2;ratioP2;P2;SDS_P1;SDS_P2;PMS_P1;PMS_P2;Temp;Humidity;BMP_temperature;BMP_pressure;BME280_temperature;BME280_humidity;BME280_pressure;Samples;Min_cycle;Max_cycle;Signal;HPM_P1;HPM_P2
2020/12/17 00:00:39;;;;;;;105.95;52.00;;;;;;;6.03;89.29;101340.55;1707476;81;25708;-78
2020/12/17 00:03:05;;;;;;;103.55;50.83;;;;;;;6.04;89.45;101343.52;1726144;82;25655;-78
2020/12/17 00:05:32;;;;;;;103.62;50.08;;;;;;;6.04;89.31;101342.22;1738012;81;26933;-77
2020/12/17 00:07:58;;;;;;;104.15;51.28;;;;;;;6.00;89.08;101345.48;1733611;81;25692;-78
2020/12/17 00:10:25;;;;;;;102.05;50.00;;;;;;;6.03;89.37;101346.59;1717895;82;26335;-77
2020/12/17 00:12:51;;;;;;;104.20;50.80;;;;;;;6.09;89.51;101349.20;1726250;83;25727;-78
2020/12/17 00:15:19;;;;;;;104.15;53.10;;;;;;;6.10;89.26;101350.38;1737532;80;25820;-78
2020/12/17 00:17:52;;;;;;;109.25;55.35;;;;;;;6.11;89.32;101353.80;1703031;83;26477;-78
2020/12/17 00:20:22;;;;;;;114.65;58.78;;;;;;;6.10;89.06;101350.85;1721812;81;26235;-78
2020/12/17 00:22:48;;;;;;;118.50;58.83;;;;;;;6.03;88.90;101354.82;1713241;81;26290;-78
2020/12/17 00:25:20;;;;;;;120.40;59.42;;;;;;;6.05;89.17;101356.84;1712059;81;25749;-78
2020/12/17 00:27:47;;;;;;;138.30;65.03;;;;;;;6.09;89.21;101354.40;1736065;80;25794;-78
2020/12/17 00:30:16;;;;;;;128.87;61.48;;;;;;;6.11;89.16;101353.80;1711607;82;25822;-78
2020/12/17 00:32:44;;;;;;;133.60;62.67;;;;;;;6.13;89.22;101354.52;1710530;81;25774;-78
2020/12/17 00:35:12;;;;;;;126.78;58.05;;;;;;;6.17;89.34;101357.27;1740201;80;25639;-78
2020/12/17 00:37:39;;;;;;;120.60;57.75;;;;;;;6.13;89.05;101357.11;1683859;82;25931;-78
2020/12/17 00:40:10;;;;;;;130.97;56.40;;;;;;;6.12;89.12;101352.88;1729247;81;25813;-78
2020/12/17 00:42:44;;;;;;;112.90;51.35;;;;;;;6.17;89.35;101352.08;1714051;81;25767;-78
2020/12/17 00:45:12;;;;;;;110.40;53.58;;;;;;;6.20;89.22;101357.04;1711703;81;25825;-78
2020/12/17 00:47:38;;;;;;;110.78;50.88;;;;;;;6.22;89.08;101354.69;1731478;81;25569;-78
2020/12/17 00:50:08;;;;;;;111.28;52.50;;;;;;;6.25;89.13;101360.58;1707227;81;25786;-78
2020/12/17 00:52:41;;;;;;;116.10;53.63;;;;;;;6.28;89.13;101356.01;1732098;80;25689;-78
2020/12/17 00:55:09;;;;;;;118.17;56.65;;;;;;;6.31;89.07;101354.95;1705165;82;25902;-78
2020/12/17 00:57:35;;;;;;;122.35;58.68;;;;;;;6.27;88.56;101365.19;1726570;81;25794;-78
2020/12/17 01:00:05;;;;;;;115.12;57.58;;;;;;;6.25;88.71;101356.23;1710756;82;26381;-78
2020/12/17 01:02:32;;;;;;;111.72;53.70;;;;;;;6.26;88.77;101350.57;1735153;80;25714;-78
2020/12/17 01:04:58;;;;;;;108.12;53.35;;;;;;;6.23;88.62;101355.04;1713054;81;26550;-77
2020/12/17 01:07:24;;;;;;;111.92;54.55;;;;;;;6.25;88.77;101352.79;1741101;81;26587;-77
2020/12/17 01:09:50;;;;;;;110.90;51.68;;;;;;;6.23;88.67;101362.00;1705541;82;26441;-77
2020/12/17 01:12:17;;;;;;;108.05;50.52;;;;;;;6.16;88.56;101364.20;1726257;82;25807;-78
2020/12/17 01:14:43;;;;;;;98.87;49.80;;;;;;;6.14;88.49;101369.17;1725669;82;25696;-78
2020/12/17 01:17:09;;;;;;;102.05;50.88;;;;;;;6.10;88.55;101367.72;1739205;80;25805;-77
2020/12/17 01:19:36;;;;;;;98.52;50.48;;;;;;;6.05;88.33;101367.22;1708506;82;26463;-77
2020/12/17 01:22:03;;;;;;;94.85;50.25;;;;;;;5.97;88.28;101372.95;1736612;80;25670;-77
2020/12/17 01:24:29;;;;;;;96.15;49.08;;;;;;;5.97;88.64;101367.33;1720143;81;26555;-77
2020/12/17 01:26:57;;;;;;;93.47;47.95;;;;;;;6.06;88.79;101372.80;1729592;80;26283;-77
2020/12/17 01:29:24;;;;;;;91.08;49.30;;;;;;;6.15;88.93;101373.41;1740834;81;26272;-77
2020/12/17 01:31:56;;;;;;;94.20;50.95;;;;;;;6.16;88.66;101366.80;1727607;80;25738;-77
2020/12/17 01:34:23;;;;;;;94.52;49.27;;;;;;;6.18;88.64;101368.00;1709784;81;25719;-78
2020/12/17 01:36:53;;;;;;;94.15;51.10;;;;;;;6.23;88.71;101367.20;1730361;81;26307;-78
2020/12/17 01:39:19;;;;;;;97.00;51.63;;;;;;;6.23;88.48;101369.80;1707806;82;26185;-77
2020/12/17 01:41:45;;;;;;;94.85;51.02;;;;;;;6.20;88.38;101371.31;1741485;80;26383;-77
2020/12/17 01:44:12;;;;;;;91.02;51.23;;;;;;;6.20;88.43;101367.42;1714377;81;26518;-77
2020/12/17 01:46:38;;;;;;;88.52;49.80;;;;;;;6.13;88.19;101364.42;1742011;80;25812;-77
2020/12/17 01:49:05;;;;;;;85.30;48.05;;;;;;;6.08;88.20;101366.52;1713553;82;25833;-77
2020/12/17 01:51:31;;;;;;;81.63;45.43;;;;;;;6.05;88.28;101371.94;1738950;81;26743;-77
2020/12/17 01:53:58;;;;;;;83.05;46.20;;;;;;;6.05;88.28;101372.41;1735271;81;25656;-77
2020/12/17 01:56:27;;;;;;;76.85;44.77;;;;;;;6.03;88.27;101372.98;1733220;79;25889;-77
2020/12/17 01:59:14;;;;;;;77.00;43.75;;;;;;;5.97;88.13;101371.22;1750790;79;26359;-77
2020/12/17 02:01:49;;;;;;;78.65;44.80;;;;;;;5.95;88.20;101369.19;1758491;79;26283;-78
2020/12/17 02:04:17;;;;;;;78.35;44.93;;;;;;;5.96;88.39;101372.61;1734700;79;25785;-77
2020/12/17 02:06:44;;;;;;;78.62;44.50;;;;;;;5.98;88.43;101374.16;1714734;81;25851;-78
2020/12/17 02:09:11;;;;;;;78.97;43.02;;;;;;;6.00;88.47;101370.99;1742134;79;25770;-77
2020/12/17 02:11:37;;;;;;;76.85;44.67;;;;;;;6.02;88.37;101368.75;1733793;81;25671;-77
2020/12/17 02:14:04;;;;;;;83.20;46.77;;;;;;;6.06;88.48;101369.72;1745397;81;25878;-77
2020/12/17 02:16:30;;;;;;;81.15;45.85;;;;;;;6.05;88.40;101373.23;1762400;79;26305;-78
2020/12/17 02:18:56;;;;;;;81.45;43.87;;;;;;;6.02;88.29;101372.64;1757548;79;25896;-77
2020/12/17 02:21:22;;;;;;;85.70;45.48;;;;;;;5.96;88.18;101376.03;1761951;80;26882;-77
2020/12/17 02:23:49;;;;;;;80.72;43.02;;;;;;;5.92;88.25;101375.02;1759871;81;26372;-77
2020/12/17 02:26:15;;;;;;;83.12;44.13;;;;;;;5.89;88.32;101383.02;1743163;81;26288;-77
2020/12/17 02:28:42;;;;;;;72.90;41.53;;;;;;;5.90;88.51;101379.52;1732190;81;25888;-77
2020/12/17 02:31:09;;;;;;;74.85;40.92;;;;;;;5.87;88.42;101381.03;1768315;79;25821;-77
2020/12/17 02:33:35;;;;;;;72.05;39.95;;;;;;;5.91;88.59;101381.98;1737453;79;25781;-77
2020/12/17 02:36:02;;;;;;;72.78;41.08;;;;;;;5.93;88.52;101375.39;1735298;81;26284;-77
2020/12/17 02:38:28;;;;;;;74.92;40.63;;;;;;;5.96;88.51;101376.03;1741087;80;25984;-77
2020/12/17 02:40:54;;;;;;;70.78;41.60;;;;;;;5.97;88.48;101372.95;1742800;79;25718;-77
2020/12/17 02:43:21;;;;;;;69.22;39.18;;;;;;;6.01;88.48;101370.52;1742295;81;25655;-77
2020/12/17 02:45:49;;;;;;;78.92;42.17;;;;;;;6.05;88.50;101368.05;1740267;79;26160;-77
2020/12/17 02:48:18;;;;;;;81.20;44.75;;;;;;;6.06;88.36;101374.09;1736218;80;25770;-77
2020/12/17 02:51:21;;;;;;;78.20;43.15;;;;;;;6.04;88.28;101369.47;1740007;80;25527;-77
2020/12/17 02:53:48;;;;;;;71.55;41.40;;;;;;;6.00;88.23;101368.40;1710615;82;25788;-77
2020/12/17 02:56:16;;;;;;;78.83;41.65;;;;;;;5.96;88.23;101369.55;1732832;80;25725;-77
2020/12/17 02:58:43;;;;;;;79.10;41.20;;;;;;;5.93;88.22;101372.80;1708963;82;25724;-77
2020/12/17 03:01:09;;;;;;;76.60;41.20;;;;;;;5.87;88.24;101368.88;1750091;80;25873;-77
2020/12/17 03:03:35;;;;;;;75.47;39.80;;;;;;;5.83;88.26;101367.91;1725926;81;25597;-77
2020/12/17 03:06:01;;;;;;;69.82;39.35;;;;;;;5.79;88.28;101373.79;1741186;80;25856;-77
2020/12/17 03:08:28;;;;;;;71.95;38.53;;;;;;;5.77;88.37;101373.06;1709037;81;26732;-77
2020/12/17 03:10:54;;;;;;;72.53;38.67;;;;;;;5.76;88.43;101372.71;1737816;81;25751;-77
2020/12/17 03:13:22;;;;;;;64.37;36.95;;;;;;;5.76;88.43;101377.42;1707865;82;25270;-77
2020/12/17 03:15:48;;;;;;;64.67;35.78;;;;;;;5.79;88.47;101380.27;1733691;80;25741;-78
2020/12/17 03:18:15;;;;;;;72.60;37.20;;;;;;;5.78;88.52;101374.27;1718694;81;25657;-78
2020/12/17 03:20:42;;;;;;;65.40;36.88;;;;;;;5.84;88.69;101376.03;1734085;80;25678;-77
2020/12/17 03:23:08;;;;;;;67.42;36.65;;;;;;;5.85;88.53;101379.83;1709781;82;26466;-78
2020/12/17 03:25:34;;;;;;;69.92;38.25;;;;;;;5.84;88.42;101378.19;1732998;80;25771;-78
2020/12/17 03:28:01;;;;;;;63.75;37.08;;;;;;;5.84;88.36;101374.30;1705831;82;25796;-78
2020/12/17 03:30:27;;;;;;;65.70;36.23;;;;;;;5.84;88.37;101380.78;1728468;81;25666;-78
2020/12/17 03:32:53;;;;;;;73.90;37.98;;;;;;;5.85;88.40;101379.01;1714032;81;25714;-78
2020/12/17 03:35:20;;;;;;;73.40;38.53;;;;;;;5.84;88.46;101376.89;1733323;80;26293;-78
2020/12/17 03:37:46;;;;;;;68.78;38.90;;;;;;;5.83;88.41;101381.70;1707067;82;25919;-77
2020/12/17 03:40:12;;;;;;;67.62;38.23;;;;;;;5.82;88.43;101381.34;1739405;81;26447;-77
2020/12/17 03:42:39;;;;;;;63.63;36.48;;;;;;;5.74;88.31;101384.48;1697921;83;25771;-77
2020/12/17 03:45:09;;;;;;;67.27;36.50;;;;;;;5.74;88.43;101390.14;1713936;81;25810;-77
2020/12/17 03:47:35;;;;;;;63.68;34.45;;;;;;;5.74;88.47;101388.84;1717877;81;25802;-78
2020/12/17 03:50:01;;;;;;;69.65;35.95;;;;;;;5.73;88.43;101385.91;1718986;81;25659;-77
2020/12/17 03:52:28;;;;;;;67.45;36.90;;;;;;;5.73;88.47;101386.73;1714077;81;25668;-77
2020/12/17 03:54:54;;;;;;;63.35;35.10;;;;;;;5.75;88.50;101387.89;1729880;81;25825;-77
2020/12/17 03:57:20;;;;;;;62.30;34.63;;;;;;;5.76;88.56;101386.98;1714719;81;25804;-78
2020/12/17 03:59:47;;;;;;;64.67;36.03;;;;;;;5.77;88.51;101389.92;1708743;81;26630;-77
2020/12/17 04:02:13;;;;;;;65.30;36.95;;;;;;;5.81;88.54;101386.19;1716784;81;26485;-77
2020/12/17 04:04:39;;;;;;;62.10;36.42;;;;;;;5.79;88.41;101386.28;1712511;81;26193;-78
2020/12/17 04:07:05;;;;;;;66.72;36.48;;;;;;;5.84;88.59;101391.16;1730897;81;25839;-77
2020/12/17 04:09:32;;;;;;;68.25;36.73;;;;;;;5.89;88.61;101389.52;1710206;81;26494;-77
2020/12/17 04:11:58;;;;;;;64.77;36.00;;;;;;;5.88;88.46;101383.98;1731927;81;25762;-78
2020/12/17 04:14:25;;;;;;;71.12;38.65;;;;;;;5.87;88.39;101384.92;1694446;82;26295;-78
2020/12/17 04:16:51;;;;;;;67.78;37.58;;;;;;;5.86;88.47;101385.84;1730154;81;25734;-78
2020/12/17 04:19:17;;;;;;;67.20;36.77;;;;;;;5.84;88.50;101388.56;1706680;81;25780;-78
2020/12/17 04:21:44;;;;;;;60.52;33.58;;;;;;;5.81;88.40;101384.03;1733651;80;25849;-78
2020/12/17 04:24:56;;;;;;;64.30;36.10;;;;;;;5.81;88.55;101387.93;1709601;81;26330;-78
2020/12/17 04:27:22;;;;;;;58.08;34.25;;;;;;;5.82;88.57;101389.61;1733625;80;25668;-78
2020/12/17 04:29:48;;;;;;;65.10;37.63;;;;;;;5.80;88.56;101383.22;1707480;81;25803;-78
2020/12/17 04:32:14;;;;;;;65.55;35.25;;;;;;;5.83;88.64;101382.17;1732427;80;25739;-78
2020/12/17 04:34:41;;;;;;;60.75;35.95;;;;;;;5.84;88.64;101383.38;1717783;81;25779;-78
2020/12/17 04:37:07;;;;;;;61.83;34.80;;;;;;;5.85;88.59;101380.30;1732394;81;25775;-77
2020/12/17 04:39:33;;;;;;;60.83;34.98;;;;;;;5.83;88.44;101383.47;1726990;81;25837;-78
2020/12/17 04:42:01;;;;;;;57.88;34.00;;;;;;;5.83;88.48;101377.80;1728839;81;25742;-78
2020/12/17 04:44:29;;;;;;;60.83;35.52;;;;;;;5.86;88.60;101384.55;1703712;81;25770;-78
2020/12/17 04:47:03;;;;;;;61.13;34.38;;;;;;;5.90;88.57;101382.11;1727484;81;25710;-78
2020/12/17 04:49:40;;;;;;;63.50;34.48;;;;;;;5.90;88.49;101386.82;1704513;82;25797;-78
2020/12/17 04:52:07;;;;;;;59.23;34.80;;;;;;;5.87;88.50;101387.05;1745742;79;25816;-77
2020/12/17 04:54:34;;;;;;;61.25;36.15;;;;;;;5.85;88.50;101383.72;1736588;81;26570;-78
2020/12/17 04:57:11;;;;;;;64.55;35.92;;;;;;;5.82;88.46;101383.13;1735696;81;26470;-78
2020/12/17 04:59:47;;;;;;;56.42;33.83;;;;;;;5.78;88.50;101379.45;1756944;81;25789;-78
2020/12/17 05:02:17;;;;;;;62.33;35.52;;;;;;;5.77;88.59;101381.66;1750540;81;26857;-77
2020/12/17 05:04:46;;;;;;;78.28;51.28;;;;;;;5.77;88.65;101385.55;1767887;79;34736;-77
2020/12/17 05:07:16;;;;;;;106.52;72.62;;;;;;;5.76;88.58;101376.60;1755560;79;25714;-78
2020/12/17 05:09:43;;;;;;;;;;;;;;;5.69;88.57;101372.30;1740343;79;25865;-78
2020/12/17 05:12:11;;;;;;;68.62;42.43;;;;;;;5.75;88.58;101387.89;1747379;79;25532;-78
2020/12/17 05:14:38;;;;;;;57.67;37.35;;;;;;;5.72;88.61;101386.81;1742266;79;25763;-78
2020/12/17 05:17:06;;;;;;;55.55;33.75;;;;;;;5.72;88.66;101389.41;1734529;80;25813;-78
2020/12/17 05:19:33;;;;;;;57.15;34.25;;;;;;;5.74;88.72;101392.27;1731836;81;25819;-78
2020/12/17 05:22:01;;;;;;;62.75;35.52;;;;;;;5.75;88.68;101384.83;1743956;79;25806;-78
2020/12/17 05:24:29;;;;;;;60.25;35.78;;;;;;;5.80;88.75;101387.11;1739902;80;25798;-78
2020/12/17 05:26:58;;;;;;;57.67;36.50;;;;;;;5.81;88.62;101394.41;1739820;80;26332;-78
2020/12/17 05:29:25;;;;;;;60.58;36.13;;;;;;;5.76;88.55;101393.47;1736662;80;25849;-78
2020/12/17 05:31:52;;;;;;;62.15;35.30;;;;;;;5.75;88.59;101389.19;1743818;80;25831;-78
2020/12/17 05:34:19;;;;;;;56.55;32.20;;;;;;;5.74;88.68;101396.63;1720438;81;26649;-78
2020/12/17 05:36:47;;;;;;;62.60;34.98;;;;;;;5.72;88.75;101392.83;1733957;81;25826;-78
2020/12/17 05:39:18;;;;;;;60.78;35.08;;;;;;;5.74;88.81;101395.33;1740969;81;26278;-78
2020/12/17 05:41:48;;;;;;;57.90;33.95;;;;;;;5.69;88.62;101391.75;1742964;81;25861;-78
2020/12/17 05:44:27;;;;;;;52.35;32.05;;;;;;;5.66;88.59;101388.55;1735380;81;25838;-78
2020/12/17 05:46:54;;;;;;;54.25;31.95;;;;;;;5.63;88.60;101396.08;1746098;80;25818;-78
2020/12/17 05:49:29;;;;;;;55.48;32.98;;;;;;;5.64;88.71;101393.84;1739266;79;25694;-79
2020/12/17 05:52:15;;;;;;;54.63;30.80;;;;;;;5.67;88.79;101392.32;1737226;80;25790;-78
2020/12/17 05:54:45;;;;;;;50.00;30.77;;;;;;;5.71;88.91;101396.37;1740370;80;25810;-78
2020/12/17 05:57:12;;;;;;;;;;;;;;;5.73;88.80;101389.31;1742698;79;25794;-78
2020/12/17 05:59:40;;;;;;;52.70;32.55;;;;;;;5.74;88.69;101396.16;1744844;79;25877;-78
2020/12/17 06:02:26;;;;;;;53.90;32.67;;;;;;;5.72;88.58;101403.20;1742238;79;25783;-78
2020/12/17 06:05:10;;;;;;;54.98;32.38;;;;;;;5.72;88.72;101392.01;1741246;79;26343;-78
2020/12/17 06:07:50;;;;;;;57.05;32.58;;;;;;;5.73;88.70;101392.39;1746900;80;25725;-78
2020/12/17 06:10:29;;;;;;;59.03;34.75;;;;;;;5.72;88.66;101398.02;1738571;79;25905;-78
2020/12/17 06:12:59;;;;;;;59.17;32.77;;;;;;;5.70;88.67;101393.88;1749102;79;25717;-78
2020/12/17 06:15:31;;;;;;;55.60;32.00;;;;;;;5.66;88.64;101392.45;1740531;79;25616;-78
2020/12/17 06:18:03;;;;;;;54.58;30.72;;;;;;;5.64;88.76;101400.32;1740517;79;25692;-78
2020/12/17 06:20:33;;;;;;;53.73;30.23;;;;;;;5.62;88.73;101392.28;1742795;79;25812;-78
2020/12/17 06:23:05;;;;;;;48.10;29.82;;;;;;;5.61;88.79;101388.87;1742354;80;25730;-78
2020/12/17 06:25:35;;;;;;;50.75;28.10;;;;;;;5.63;88.76;101392.66;1736090;81;26578;-77
2020/12/17 06:28:02;;;;;;;50.67;29.00;;;;;;;5.62;88.83;101390.55;1748133;79;25809;-78
2020/12/17 06:30:32;;;;;;;45.60;25.77;;;;;;;5.62;88.82;101393.14;1749817;80;25739;-78
2020/12/17 06:33:03;;;;;;;52.13;28.85;;;;;;;5.63;88.82;101399.97;1740005;80;26284;-78
2020/12/17 06:35:54;;;;;;;44.85;26.82;;;;;;;5.65;88.86;101399.87;1745912;79;25844;-78
2020/12/17 06:38:24;;;;;;;42.40;25.72;;;;;;;5.65;88.79;101396.81;1748232;79;25686;-78
2020/12/17 06:40:50;;;;;;;47.75;26.87;;;;;;;5.65;88.77;101402.00;1746768;81;25716;-78
2020/12/17 06:43:36;;;;;;;43.95;27.07;;;;;;;5.67;88.76;101406.59;1740061;79;25723;-78
2020/12/17 06:46:04;;;;;;;45.50;28.15;;;;;;;5.70;88.83;101404.25;1742725;81;25799;-78
2020/12/17 06:48:38;;;;;;;46.30;27.35;;;;;;;5.72;88.77;101402.38;1740725;81;25722;-78
2020/12/17 06:51:39;;;;;;;49.55;29.37;;;;;;;5.73;88.74;101411.37;1744275;79;26298;-78
2020/12/17 06:54:11;;;;;;;;;;;;;;;5.72;88.66;101413.58;1695085;83;25918;-78
2020/12/17 06:56:37;;;;;;;50.08;29.05;;;;;;;5.68;88.68;101414.75;1670611;83;26863;-78
2020/12/17 06:59:17;;;;;;;46.02;26.45;;;;;;;5.65;88.78;101417.56;1690420;83;25995;-78
2020/12/17 07:01:46;;;;;;;45.10;26.33;;;;;;;5.64;88.83;101419.77;1684343;83;25899;-78
2020/12/17 07:04:33;;;;;;;46.28;26.77;;;;;;;5.62;88.87;101424.26;1690627;83;25776;-79
2020/12/17 07:07:22;;;;;;;49.18;26.45;;;;;;;5.62;88.79;101419.07;1688290;83;26627;-78
2020/12/17 07:09:56;;;;;;;42.55;25.80;;;;;;;5.56;88.71;101425.52;1694023;83;25786;-78
2020/12/17 07:12:39;;;;;;;44.48;28.32;;;;;;;5.54;88.77;101418.77;1688016;83;25989;-78
2020/12/17 07:15:32;;;;;;;43.98;26.73;;;;;;;5.55;88.92;101412.17;1688627;83;25779;-78
2020/12/17 07:18:21;;;;;;;42.45;26.23;;;;;;;5.60;89.03;101414.45;1683582;83;26627;-78
2020/12/17 07:20:52;;;;;;;45.50;28.50;;;;;;;5.56;88.89;101406.51;1689665;83;25768;-78
2020/12/17 07:23:20;;;;;;;41.73;26.25;;;;;;;5.63;89.01;101412.94;1689964;83;26484;-78
2020/12/17 07:25:52;;;;;;;42.23;25.97;;;;;;;5.66;88.95;101414.02;1724396;80;25809;-78
2020/12/17 07:28:25;;;;;;;46.50;28.55;;;;;;;5.70;89.01;101416.77;1706502;82;25740;-78
2020/12/17 07:30:55;;;;;;;45.90;27.30;;;;;;;5.72;88.93;101411.45;1736180;81;25701;-78
2020/12/17 07:33:41;;;;;;;43.35;26.90;;;;;;;5.71;88.89;101410.64;1708404;81;25836;-78
2020/12/17 07:36:10;;;;;;;90.97;58.23;;;;;;;5.68;88.81;101416.52;1743415;81;26294;-78
2020/12/17 07:38:39;;;;;;;114.75;71.42;;;;;;;5.69;88.99;101418.16;1709149;81;25739;-78
2020/12/17 07:41:06;;;;;;;139.12;85.83;;;;;;;5.69;89.01;101407.79;1732935;80;26253;-78
2020/12/17 07:43:41;;;;;;;118.97;76.47;;;;;;;5.67;88.95;101417.44;1708887;81;26409;-78
2020/12/17 07:46:09;;;;;;;90.45;61.45;;;;;;;5.69;89.02;101416.86;1732259;80;25458;-78
2020/12/17 07:48:47;;;;;;;64.60;44.63;;;;;;;5.70;88.98;101418.52;1717549;81;26403;-78
2020/12/17 07:51:22;;;;;;;70.20;47.25;;;;;;;5.69;88.96;101418.98;1738503;80;25695;-78
2020/12/17 07:53:50;;;;;;;64.55;41.42;;;;;;;5.70;88.93;101412.88;1713906;81;25756;-78
2020/12/17 07:56:17;;;;;;;48.33;31.85;;;;;;;5.71;88.92;101411.11;1735269;80;26656;-78
2020/12/17 07:58:44;;;;;;;44.27;30.72;;;;;;;5.73;88.94;101415.73;1708702;82;25510;-78
2020/12/17 08:01:13;;;;;;;48.42;27.98;;;;;;;5.73;88.84;101416.55;1744220;80;26312;-78
2020/12/17 08:03:49;;;;;;;44.53;27.48;;;;;;;5.73;88.83;101413.14;1717759;81;25637;-78
2020/12/17 08:06:21;;;;;;;43.87;26.30;;;;;;;5.77;88.87;101416.69;1743806;80;25833;-78
2020/12/17 08:08:58;;;;;;;45.75;27.87;;;;;;;5.79;88.94;101417.89;1728004;81;25696;-78
2020/12/17 08:11:25;;;;;;;45.28;26.02;;;;;;;5.83;89.04;101411.53;1734882;80;25739;-78
2020/12/17 08:14:02;;;;;;;50.12;29.27;;;;;;;5.83;88.92;101415.90;1723333;82;25815;-80
2020/12/17 08:16:29;;;;;;;42.17;25.52;;;;;;;5.82;88.87;101420.73;1715722;81;25671;-80
2020/12/17 08:18:57;;;;;;;47.85;26.25;;;;;;;5.81;88.94;101424.25;1734997;80;26391;-79
2020/12/17 08:21:24;;;;;;;47.38;26.82;;;;;;;5.79;88.83;101421.30;1725043;81;25829;-80
2020/12/17 08:23:51;;;;;;;48.58;28.23;;;;;;;5.79;88.89;101425.20;1732657;80;25885;-80
2020/12/17 08:26:22;;;;;;;49.00;26.62;;;;;;;5.75;88.57;101425.51;1708952;81;26431;-80
2020/12/17 08:28:49;;;;;;;47.67;28.52;;;;;;;5.73;88.73;101428.70;1752095;80;25885;-79
2020/12/17 08:31:28;;;;;;;50.30;28.15;;;;;;;5.73;88.75;101431.30;1712101;82;25807;-78
2020/12/17 08:33:58;;;;;;;52.10;31.53;;;;;;;5.72;88.75;101427.84;1737544;80;25599;-78
2020/12/17 08:36:27;;;;;;;64.75;39.20;;;;;;;5.73;88.80;101426.11;1708974;82;26359;-78
2020/12/17 08:39:09;;;;;;;63.65;35.60;;;;;;;5.77;88.88;101424.94;1743272;80;25766;-78
2020/12/17 08:41:54;;;;;;;64.35;37.08;;;;;;;5.77;88.82;101427.06;1716630;81;25890;-78
2020/12/17 08:44:24;;;;;;;68.80;41.02;;;;;;;5.79;88.85;101425.20;1741817;80;26363;-77
2020/12/17 08:47:00;;;;;;;70.15;40.30;;;;;;;5.79;88.70;101425.20;1719310;81;25827;-78
2020/12/17 08:49:28;;;;;;;72.87;40.80;;;;;;;5.79;88.84;101427.79;1741319;80;25675;-77
2020/12/17 08:51:55;;;;;;;66.30;37.85;;;;;;;5.79;88.90;101425.20;1714570;81;25826;-78
2020/12/17 08:54:27;;;;;;;65.83;35.20;;;;;;;5.81;88.99;101429.44;1733432;81;25737;-77
2020/12/17 08:57:05;;;;;;;71.02;37.28;;;;;;;5.82;89.03;101431.94;1742187;79;26832;-77
2020/12/17 08:59:31;;;;;;;66.02;36.23;;;;;;;5.83;89.05;101430.98;1742182;79;25892;-78
2020/12/17 09:01:59;;;;;;;67.37;37.30;;;;;;;5.85;89.04;101429.13;1747347;79;25940;-78
2020/12/17 09:04:26;;;;;;;65.95;34.20;;;;;;;5.84;88.87;101432.66;1749030;79;26581;-78
2020/12/17 09:06:55;;;;;;;67.40;37.13;;;;;;;5.87;88.95;101428.55;1738450;79;25750;-78
2020/12/17 09:09:26;;;;;;;67.10;35.37;;;;;;;5.89;88.89;101424.53;1758329;79;25625;-78
2020/12/17 09:11:56;;;;;;;66.72;36.77;;;;;;;5.90;88.82;101423.63;1753042;79;25689;-78
2020/12/17 09:14:33;;;;;;;71.40;37.15;;;;;;;5.95;88.85;101430.64;1742128;79;25767;-78
2020/12/17 09:17:14;;;;;;;68.95;38.42;;;;;;;5.93;88.66;101421.66;1740435;79;26966;-78
2020/12/17 09:19:43;;;;;;;75.30;38.92;;;;;;;5.95;88.77;101423.69;1747369;79;25722;-78
2020/12/17 09:22:10;;;;;;;82.47;40.30;;;;;;;5.96;88.84;101420.61;1744249;79;26349;-78
2020/12/17 09:24:41;;;;;;;86.57;40.98;;;;;;;6.03;88.87;101424.45;1740974;79;26631;-78
2020/12/17 09:27:27;;;;;;;82.82;42.50;;;;;;;6.07;88.85;101427.64;1742495;79;25812;-78
2020/12/17 09:30:21;;;;;;;80.25;41.68;;;;;;;6.07;88.76;101426.34;1739529;79;25775;-78
2020/12/17 09:32:57;;;;;;;77.25;38.90;;;;;;;6.03;88.64;101423.14;1740901;79;25851;-78
2020/12/17 09:35:34;;;;;;;79.65;38.88;;;;;;;5.99;88.56;101423.81;1749054;78;26288;-78
2020/12/17 09:38:05;;;;;;;78.78;39.05;;;;;;;5.97;88.54;101426.16;1742360;79;26592;-78
2020/12/17 09:40:37;;;;;;;78.83;38.42;;;;;;;5.97;88.62;101427.01;1739386;79;25734;-78
2020/12/17 09:43:15;;;;;;;75.47;39.80;;;;;;;6.02;88.78;101429.25;1743424;79;26395;-78
2020/12/17 09:45:50;;;;;;;74.97;37.70;;;;;;;6.10;88.84;101423.52;1740298;79;25710;-80
2020/12/17 09:48:24;;;;;;;72.25;37.38;;;;;;;6.14;88.74;101424.98;1745102;79;25852;-80
2020/12/17 09:51:01;;;;;;;80.45;40.98;;;;;;;6.15;88.52;101422.73;1746301;80;25313;-80
2020/12/17 09:53:31;;;;;;;74.55;39.55;;;;;;;6.17;88.53;101425.58;1734248;80;25809;-80
2020/12/17 09:55:59;;;;;;;84.92;42.55;;;;;;;6.15;88.48;101422.25;1742015;80;25814;-80
2020/12/17 09:58:26;;;;;;;79.82;42.62;;;;;;;6.18;88.57;101423.33;1740599;80;25804;-80
2020/12/17 10:00:52;;;;;;;73.45;39.78;;;;;;;6.21;88.58;101423.58;1748456;79;25318;-80
2020/12/17 10:03:19;;;;;;;70.05;39.55;;;;;;;6.18;88.37;101423.80;1744793;80;25878;-80
2020/12/17 10:05:46;;;;;;;69.30;38.08;;;;;;;6.15;88.40;101420.13;1739896;79;25655;-80
2020/12/17 10:08:14;;;;;;;80.10;40.08;;;;;;;6.14;88.42;101416.72;1739615;80;26467;-80
2020/12/17 10:10:40;;;;;;;74.03;37.00;;;;;;;6.15;88.25;101417.54;1739916;80;26504;-79
2020/12/17 10:13:08;;;;;;;77.15;38.85;;;;;;;6.12;88.32;101412.09;1743674;80;26436;-80
2020/12/17 10:15:35;;;;;;;73.15;39.75;;;;;;;6.15;88.26;101412.34;1739683;80;25853;-80
2020/12/17 10:18:02;;;;;;;75.62;40.98;;;;;;;6.16;88.35;101415.29;1736706;80;26394;-80
2020/12/17 10:20:29;;;;;;;77.30;40.28;;;;;;;6.15;88.14;101413.64;1754590;80;25829;-79
2020/12/17 10:22:55;;;;;;;88.95;48.92;;;;;;;6.13;88.22;101407.25;1738288;80;25872;-80
2020/12/17 10:25:23;;;;;;;157.50;96.75;;;;;;;6.15;88.21;101404.09;1743185;80;25755;-80
2020/12/17 10:27:52;;;;;;;137.43;83.97;;;;;;;6.18;88.19;101399.14;1734851;80;26667;-80
2020/12/17 10:30:19;;;;;;;104.32;64.20;;;;;;;6.20;88.26;101392.08;1736513;80;25811;-79
2020/12/17 10:32:45;;;;;;;99.20;61.40;;;;;;;6.21;88.21;101390.66;1737573;80;26583;-79
2020/12/17 10:35:11;;;;;;;85.95;50.05;;;;;;;6.21;88.21;101391.13;1715197;80;26274;-79
2020/12/17 10:37:42;;;;;;;94.42;52.53;;;;;;;6.18;88.27;101386.98;1694082;81;25977;-80
2020/12/17 10:40:13;;;;;;;70.08;41.77;;;;;;;6.20;88.24;101386.89;1706440;81;26316;-80
2020/12/17 10:42:40;;;;;;;71.97;43.00;;;;;;;6.13;87.98;101381.30;1740019;80;26331;-80
2020/12/17 10:45:08;;;;;;;71.40;42.23;;;;;;;6.12;88.18;101380.95;1739425;80;26422;-80
2020/12/17 10:47:35;;;;;;;69.15;41.20;;;;;;;6.14;88.32;101373.06;1734817;80;26612;-78
2020/12/17 10:50:06;;;;;;;72.32;38.73;;;;;;;6.19;88.32;101376.13;1735746;80;25814;-78
2020/12/17 10:52:32;;;;;;;;;;;;;;;6.20;88.21;101377.33;1738991;80;25698;-77
2020/12/17 10:55:16;;;;;;;67.97;36.65;;;;;;;6.23;88.28;101379.70;1737759;80;25741;-78
2020/12/17 10:57:43;;;;;;;63.00;35.85;;;;;;;6.24;88.14;101379.22;1739653;80;26239;-80
2020/12/17 11:00:09;;;;;;;64.97;35.75;;;;;;;6.22;88.06;101379.83;1737209;80;25959;-80
2020/12/17 11:02:35;;;;;;;64.35;35.65;;;;;;;6.18;87.85;101374.01;1745966;80;25845;-80
2020/12/17 11:05:02;;;;;;;68.35;36.13;;;;;;;6.17;87.90;101379.33;1745224;80;26358;-80
2020/12/17 11:07:29;;;;;;;63.08;38.25;;;;;;;6.17;87.95;101376.26;1737710;80;25808;-78
2020/12/17 11:09:55;;;;;;;63.28;35.92;;;;;;;6.17;88.03;101373.66;1746833;80;25696;-78
2020/12/17 11:12:21;;;;;;;67.72;36.93;;;;;;;6.18;88.01;101368.81;1745072;80;25813;-78
2020/12/17 11:14:48;;;;;;;65.40;36.77;;;;;;;6.18;88.03;101370.59;1724329;80;25788;-78
2020/12/17 11:17:14;;;;;;;68.75;36.35;;;;;;;6.15;88.02;101370.81;1742434;80;25873;-78
2020/12/17 11:19:40;;;;;;;64.42;35.50;;;;;;;6.13;87.93;101366.20;1744256;80;25842;-78
2020/12/17 11:22:07;;;;;;;64.77;36.08;;;;;;;6.11;87.97;101368.92;1741422;80;25855;-81
2020/12/17 11:24:33;;;;;;;70.10;36.38;;;;;;;6.11;88.00;101368.92;1743952;80;25726;-80
2020/12/17 11:26:59;;;;;;;67.37;34.53;;;;;;;6.12;87.94;101368.45;1735833;80;25769;-80
2020/12/17 11:29:26;;;;;;;62.10;33.85;;;;;;;6.13;88.02;101372.21;1739404;80;26465;-80